sensor_id;sensor_type;location;lat;lon;timestamp;pressure;altitude;pressure_sealevel;temperature;humidity
42887;BME280;29032;56.028;92.904;2023-08-17T00:01:36;98822.44;;;17.20;58.38
42887;BME280;29032;56.028;92.904;2023-08-17T00:06:38;98820.97;;;17.19;56.39
42887;BME280;29032;56.028;92.904;2023-08-17T00:11:40;98827.84;;;17.18;56.00
42887;BME280;29032;56.028;92.904;2023-08-17T00:16:44;98820.97;;;17.19;57.87
42887;BME280;29032;56.028;92.904;2023-08-17T00:21:46;98808.09;;;17.16;55.70
42887;BME280;29032;56.028;92.904;2023-08-17T00:26:48;98817.41;;;17.19;55.24
42887;BME280;29032;56.028;92.904;2023-08-17T00:31:51;98808.09;;;17.16;55.45
42887;BME280;29032;56.028;92.904;2023-08-17T00:36:54;98819.09;;;17.04;55.02
42887;BME280;29032;56.028;92.904;2023-08-17T00:41:56;98821.25;;;16.96;54.79
42887;BME280;29032;56.028;92.904;2023-08-17T00:46:59;98825.13;;;17.01;55.30
42887;BME280;29032;56.028;92.904;2023-08-17T00:52:02;98812.16;;;17.05;55.03
42887;BME280;29032;56.028;92.904;2023-08-17T00:57:05;98825.59;;;17.07;55.47
42887;BME280;29032;56.028;92.904;2023-08-17T01:02:08;98823.28;;;17.13;55.13
42887;BME280;29032;56.028;92.904;2023-08-17T01:07:12;98819.84;;;17.05;55.17
42887;BME280;29032;56.028;92.904;2023-08-17T01:12:21;98825.91;;;17.11;55.36
42887;BME280;29032;56.028;92.904;2023-08-17T01:17:31;98829.41;;;17.02;56.15
42887;BME280;29032;56.028;92.904;2023-08-17T01:22:35;98829.25;;;16.82;56.16
42887;BME280;29032;56.028;92.904;2023-08-17T01:27:42;98827.63;;;16.79;56.88
42887;BME280;29032;56.028;92.904;2023-08-17T01:32:49;98827.63;;;16.79;57.36
42887;BME280;29032;56.028;92.904;2023-08-17T01:37:53;98824.69;;;16.77;57.90
42887;BME280;29032;56.028;92.904;2023-08-17T01:42:59;98820.06;;;16.72;58.13
42887;BME280;29032;56.028;92.904;2023-08-17T01:48:01;98819.69;;;16.68;58.43
42887;BME280;29032;56.028;92.904;2023-08-17T01:53:04;98820.78;;;16.73;58.65
42887;BME280;29032;56.028;92.904;2023-08-17T01:58:07;98820.69;;;16.80;58.62
42887;BME280;29032;56.028;92.904;2023-08-17T02:03:09;98816.28;;;16.77;58.58
42887;BME280;29032;56.028;92.904;2023-08-17T02:08:11;98818.06;;;16.82;58.26
42887;BME280;29032;56.028;92.904;2023-08-17T02:13:15;98815.44;;;16.84;57.86
42887;BME280;29032;56.028;92.904;2023-08-17T02:18:18;98803.59;;;16.76;57.89
42887;BME280;29032;56.028;92.904;2023-08-17T02:23:20;98801.78;;;16.71;58.25
42887;BME280;29032;56.028;92.904;2023-08-17T02:28:23;98799.75;;;16.81;57.84
42887;BME280;29032;56.028;92.904;2023-08-17T02:33:25;98796.81;;;16.79;58.15
42887;BME280;29032;56.028;92.904;2023-08-17T02:38:27;98804.97;;;16.85;57.45
42887;BME280;29032;56.028;92.904;2023-08-17T02:43:31;98810.31;;;16.91;57.75
42887;BME280;29032;56.028;92.904;2023-08-17T02:48:33;98804.84;;;16.93;57.07
42887;BME280;29032;56.028;92.904;2023-08-17T02:53:35;98805.34;;;16.99;57.07
42887;BME280;29032;56.028;92.904;2023-08-17T02:58:39;98804.66;;;17.08;56.93
42887;BME280;29032;56.028;92.904;2023-08-17T03:03:41;98793.31;;;17.16;57.09
42887;BME280;29032;56.028;92.904;2023-08-17T03:08:43;98794.88;;;17.26;56.29
42887;BME280;29032;56.028;92.904;2023-08-17T03:13:48;98783.69;;;17.36;56.23
42887;BME280;29032;56.028;92.904;2023-08-17T03:18:50;98772.91;;;17.32;56.00
42887;BME280;29032;56.028;92.904;2023-08-17T03:23:53;98776.34;;;17.41;55.61
42887;BME280;29032;56.028;92.904;2023-08-17T03:28:57;98771.63;;;17.53;55.94
42887;BME280;29032;56.028;92.904;2023-08-17T03:33:59;98770.00;;;17.50;55.27
42887;BME280;29032;56.028;92.904;2023-08-17T03:39:01;98769.88;;;17.48;55.50
42887;BME280;29032;56.028;92.904;2023-08-17T03:44:05;98763.06;;;17.51;55.27
42887;BME280;29032;56.028;92.904;2023-08-17T03:49:07;98751.69;;;17.49;55.49
42887;BME280;29032;56.028;92.904;2023-08-17T03:54:09;98754.81;;;17.53;55.33
42887;BME280;29032;56.028;92.904;2023-08-17T03:59:14;98752.63;;;17.61;54.93
42887;BME280;29032;56.028;92.904;2023-08-17T04:04:16;98747.91;;;17.63;55.74
42887;BME280;29032;56.028;92.904;2023-08-17T04:09:18;98743.81;;;17.74;55.12
42887;BME280;29032;56.028;92.904;2023-08-17T04:14:21;98730.09;;;17.88;54.61
42887;BME280;29032;56.028;92.904;2023-08-17T04:19:23;98723.00;;;17.87;54.35
42887;BME280;29032;56.028;92.904;2023-08-17T04:24:25;98724.06;;;17.91;54.79
42887;BME280;29032;56.028;92.904;2023-08-17T04:29:30;98724.34;;;17.96;54.12
42887;BME280;29032;56.028;92.904;2023-08-17T04:34:33;98712.38;;;17.95;54.85
42887;BME280;29032;56.028;92.904;2023-08-17T04:39:35;98719.63;;;18.08;54.45
42887;BME280;29032;56.028;92.904;2023-08-17T04:44:39;98731.75;;;18.20;54.31
42887;BME280;29032;56.028;92.904;2023-08-17T04:49:41;98727.91;;;18.25;53.38
42887;BME280;29032;56.028;92.904;2023-08-17T04:54:43;98727.59;;;18.21;53.07
42887;BME280;29032;56.028;92.904;2023-08-17T04:59:47;98732.34;;;18.28;53.25
42887;BME280;29032;56.028;92.904;2023-08-17T05:04:50;98720.38;;;18.28;53.08
42887;BME280;29032;56.028;92.904;2023-08-17T05:09:53;98722.75;;;18.31;52.94
42887;BME280;29032;56.028;92.904;2023-08-17T05:14:57;98715.47;;;18.47;52.39
42887;BME280;29032;56.028;92.904;2023-08-17T05:20:01;98716.34;;;18.50;52.78
42887;BME280;29032;56.028;92.904;2023-08-17T05:25:04;98724.03;;;18.49;52.95
42887;BME280;29032;56.028;92.904;2023-08-17T05:30:11;98717.25;;;18.53;53.57
42887;BME280;29032;56.028;92.904;2023-08-17T05:35:13;98728.03;;;18.46;53.21
42887;BME280;29032;56.028;92.904;2023-08-17T05:40:15;98715.16;;;18.43;53.37
42887;BME280;29032;56.028;92.904;2023-08-17T05:45:19;98715.31;;;18.55;53.61
42887;BME280;29032;56.028;92.904;2023-08-17T05:50:21;98708.22;;;18.54;53.22
42887;BME280;29032;56.028;92.904;2023-08-17T05:55:23;98704.06;;;18.55;53.95
42887;BME280;29032;56.028;92.904;2023-08-17T06:00:26;98706.00;;;18.62;53.66
42887;BME280;29032;56.028;92.904;2023-08-17T06:05:28;98694.91;;;18.64;53.53
42887;BME280;29032;56.028;92.904;2023-08-17T06:10:30;98687.63;;;18.71;53.59
42887;BME280;29032;56.028;92.904;2023-08-17T06:15:34;98689.66;;;18.80;53.17
42887;BME280;29032;56.028;92.904;2023-08-17T06:20:36;98688.34;;;18.81;53.16
42887;BME280;29032;56.028;92.904;2023-08-17T06:25:38;98688.31;;;18.91;54.12
42887;BME280;29032;56.028;92.904;2023-08-17T06:30:41;98678.91;;;19.08;53.38
42887;BME280;29032;56.028;92.904;2023-08-17T06:35:44;98691.38;;;19.05;52.37
42887;BME280;29032;56.028;92.904;2023-08-17T06:40:46;98694.50;;;18.99;52.72
42887;BME280;29032;56.028;92.904;2023-08-17T06:45:49;98702.13;;;18.77;56.66
42887;BME280;29032;56.028;92.904;2023-08-17T06:50:51;98712.53;;;18.45;58.06
42887;BME280;29032;56.028;92.904;2023-08-17T06:55:53;98719.34;;;18.33;58.76
42887;BME280;29032;56.028;92.904;2023-08-17T07:00:57;98711.34;;;18.29;59.09
42887;BME280;29032;56.028;92.904;2023-08-17T07:05:59;98718.72;;;18.15;58.65
42887;BME280;29032;56.028;92.904;2023-08-17T07:11:01;98716.94;;;18.10;58.67
42887;BME280;29032;56.028;92.904;2023-08-17T07:16:04;98721.25;;;18.11;59.18
42887;BME280;29032;56.028;92.904;2023-08-17T07:21:06;98718.16;;;18.07;59.87
42887;BME280;29032;56.028;92.904;2023-08-17T07:26:08;98718.13;;;18.16;58.78
42887;BME280;29032;56.028;92.904;2023-08-17T07:31:12;98715.34;;;18.26;58.60
42887;BME280;29032;56.028;92.904;2023-08-17T07:36:13;98717.84;;;18.22;58.03
42887;BME280;29032;56.028;92.904;2023-08-17T07:41:16;98705.00;;;18.19;58.68
42887;BME280;29032;56.028;92.904;2023-08-17T07:46:19;98706.03;;;18.14;57.99
42887;BME280;29032;56.028;92.904;2023-08-17T07:51:21;98715.47;;;18.09;58.08
42887;BME280;29032;56.028;92.904;2023-08-17T07:56:23;98708.09;;;18.04;58.65
42887;BME280;29032;56.028;92.904;2023-08-17T08:01:27;98708.25;;;18.06;58.38
42887;BME280;29032;56.028;92.904;2023-08-17T08:06:29;98703.66;;;18.01;59.17
42887;BME280;29032;56.028;92.904;2023-08-17T08:11:31;98708.09;;;18.04;58.83
42887;BME280;29032;56.028;92.904;2023-08-17T08:16:34;98717.25;;;18.14;59.30
42887;BME280;29032;56.028;92.904;2023-08-17T08:21:36;98706.19;;;18.06;59.43
42887;BME280;29032;56.028;92.904;2023-08-17T08:26:38;98709.00;;;17.97;59.52
42887;BME280;29032;56.028;92.904;2023-08-17T08:31:42;98714.00;;;17.88;60.86
42887;BME280;29032;56.028;92.904;2023-08-17T08:36:44;98713.41;;;17.80;61.70
42887;BME280;29032;56.028;92.904;2023-08-17T08:41:46;98710.03;;;17.82;62.33
42887;BME280;29032;56.028;92.904;2023-08-17T08:46:51;98712.81;;;17.91;62.84
42887;BME280;29032;56.028;92.904;2023-08-17T08:51:57;98719.91;;;17.92;62.96
42887;BME280;29032;56.028;92.904;2023-08-17T08:57:04;98719.59;;;17.88;63.81
42887;BME280;29032;56.028;92.904;2023-08-17T09:02:11;98721.09;;;17.89;64.59
42887;BME280;29032;56.028;92.904;2023-08-17T09:07:13;98723.00;;;17.77;62.84
42887;BME280;29032;56.028;92.904;2023-08-17T09:12:16;98739.38;;;17.71;65.05
42887;BME280;29032;56.028;92.904;2023-08-17T09:17:24;98734.38;;;17.79;64.81
42887;BME280;29032;56.028;92.904;2023-08-17T09:22:38;98733.50;;;17.77;65.69
42887;BME280;29032;56.028;92.904;2023-08-17T09:27:40;98730.19;;;17.61;66.32
42887;BME280;29032;56.028;92.904;2023-08-17T09:32:43;98718.50;;;17.64;66.51
42887;BME280;29032;56.028;92.904;2023-08-17T09:37:45;98714.50;;;17.58;66.85
42887;BME280;29032;56.028;92.904;2023-08-17T09:42:49;98724.25;;;17.57;66.86
42887;BME280;29032;56.028;92.904;2023-08-17T09:47:55;98727.22;;;17.59;67.12
42887;BME280;29032;56.028;92.904;2023-08-17T09:52:57;98739.75;;;17.58;66.46
42887;BME280;29032;56.028;92.904;2023-08-17T09:58:00;98737.69;;;17.58;66.84
42887;BME280;29032;56.028;92.904;2023-08-17T10:03:04;98743.19;;;17.66;67.42
42887;BME280;29032;56.028;92.904;2023-08-17T10:08:07;98730.09;;;17.69;66.71
42887;BME280;29032;56.028;92.904;2023-08-17T10:13:15;98725.47;;;17.63;66.69
42887;BME280;29032;56.028;92.904;2023-08-17T10:18:27;98724.03;;;17.72;66.30
42887;BME280;29032;56.028;92.904;2023-08-17T10:23:31;98736.09;;;17.65;67.37
42887;BME280;29032;56.028;92.904;2023-08-17T10:28:34;98727.84;;;17.67;66.50
42887;BME280;29032;56.028;92.904;2023-08-17T10:33:38;98730.38;;;17.73;67.15
42887;BME280;29032;56.028;92.904;2023-08-17T10:38:41;98737.03;;;17.77;65.86
42887;BME280;29032;56.028;92.904;2023-08-17T10:43:56;98733.81;;;17.90;66.67
42887;BME280;29032;56.028;92.904;2023-08-17T10:49:01;98730.97;;;17.81;67.84
42887;BME280;29032;56.028;92.904;2023-08-17T10:54:04;98724.63;;;17.71;66.55
42887;BME280;29032;56.028;92.904;2023-08-17T10:59:24;98737.31;;;17.81;66.04
42887;BME280;29032;56.028;92.904;2023-08-17T11:04:32;98730.81;;;17.69;66.26
42887;BME280;29032;56.028;92.904;2023-08-17T11:09:35;98738.59;;;17.61;67.33
42887;BME280;29032;56.028;92.904;2023-08-17T11:14:37;98737.59;;;17.66;66.90
42887;BME280;29032;56.028;92.904;2023-08-17T11:19:41;98741.16;;;17.76;66.12
42887;BME280;29032;56.028;92.904;2023-08-17T11:24:43;98740.72;;;17.70;66.07
42887;BME280;29032;56.028;92.904;2023-08-17T11:29:46;98734.09;;;17.75;66.21
42887;BME280;29032;56.028;92.904;2023-08-17T11:34:49;98744.13;;;17.78;67.96
42887;BME280;29032;56.028;92.904;2023-08-17T11:39:51;98747.06;;;17.80;67.61
42887;BME280;29032;56.028;92.904;2023-08-17T11:44:53;98744.72;;;17.86;66.86
42887;BME280;29032;56.028;92.904;2023-08-17T11:50:00;98745.03;;;17.90;66.76
42887;BME280;29032;56.028;92.904;2023-08-17T11:55:03;98751.94;;;17.80;65.52
42887;BME280;29032;56.028;92.904;2023-08-17T12:00:08;98751.06;;;17.77;67.58
42887;BME280;29032;56.028;92.904;2023-08-17T12:05:11;98758.28;;;17.80;66.05
42887;BME280;29032;56.028;92.904;2023-08-17T12:10:13;98755.94;;;17.77;66.27
42887;BME280;29032;56.028;92.904;2023-08-17T12:15:16;98769.97;;;17.77;66.49
42887;BME280;29032;56.028;92.904;2023-08-17T12:20:20;98774.25;;;17.78;66.15
42887;BME280;29032;56.028;92.904;2023-08-17T12:25:23;98778.38;;;17.77;66.75
42887;BME280;29032;56.028;92.904;2023-08-17T12:30:27;98779.72;;;17.76;66.97
42887;BME280;29032;56.028;92.904;2023-08-17T12:35:32;98781.06;;;17.75;67.47
42887;BME280;29032;56.028;92.904;2023-08-17T12:40:34;98792.09;;;17.73;66.73
42887;BME280;29032;56.028;92.904;2023-08-17T12:45:36;98782.31;;;17.64;67.02
42887;BME280;29032;56.028;92.904;2023-08-17T12:50:40;98792.00;;;17.53;67.95
42887;BME280;29032;56.028;92.904;2023-08-17T12:55:42;98786.53;;;17.46;67.42
42887;BME280;29032;56.028;92.904;2023-08-17T13:00:44;98794.94;;;17.46;67.60
42887;BME280;29032;56.028;92.904;2023-08-17T13:05:48;98794.94;;;17.46;67.42
42887;BME280;29032;56.028;92.904;2023-08-17T13:10:50;98796.25;;;17.45;67.31
42887;BME280;29032;56.028;92.904;2023-08-17T13:15:52;98787.66;;;17.33;67.37
42887;BME280;29032;56.028;92.904;2023-08-17T13:20:55;98817.22;;;17.44;67.01
42887;BME280;29032;56.028;92.904;2023-08-17T13:25:57;98822.06;;;17.33;67.11
42887;BME280;29032;56.028;92.904;2023-08-17T13:30:59;98806.56;;;17.32;66.93
42887;BME280;29032;56.028;92.904;2023-08-17T13:36:03;98826.00;;;17.30;66.97
42887;BME280;29032;56.028;92.904;2023-08-17T13:41:05;98833.31;;;17.16;67.10
42887;BME280;29032;56.028;92.904;2023-08-17T13:46:07;98826.34;;;17.07;67.84
42887;BME280;29032;56.028;92.904;2023-08-17T13:51:11;98827.06;;;17.08;67.76
42887;BME280;29032;56.028;92.904;2023-08-17T13:56:13;98822.31;;;17.01;68.13
42887;BME280;29032;56.028;92.904;2023-08-17T14:01:15;98814.66;;;17.01;67.86
42887;BME280;29032;56.028;92.904;2023-08-17T14:06:19;98819.75;;;17.13;67.70
42887;BME280;29032;56.028;92.904;2023-08-17T14:11:21;98827.56;;;17.14;67.10
42887;BME280;29032;56.028;92.904;2023-08-17T14:16:23;98827.56;;;17.14;67.40
42887;BME280;29032;56.028;92.904;2023-08-17T14:21:26;98832.59;;;17.16;66.56
42887;BME280;29032;56.028;92.904;2023-08-17T14:26:28;98827.06;;;17.08;66.55
42887;BME280;29032;56.028;92.904;2023-08-17T14:31:31;98825.28;;;17.03;66.62
42887;BME280;29032;56.028;92.904;2023-08-17T14:36:34;98829.56;;;17.04;67.01
42887;BME280;29032;56.028;92.904;2023-08-17T14:41:36;98830.56;;;16.99;66.52
42887;BME280;29032;56.028;92.904;2023-08-17T14:46:38;98837.66;;;17.00;66.82
42887;BME280;29032;56.028;92.904;2023-08-17T14:51:42;98844.75;;;17.01;66.54
42887;BME280;29032;56.028;92.904;2023-08-17T14:56:44;98835.84;;;16.95;66.70
42887;BME280;29032;56.028;92.904;2023-08-17T15:01:46;98842.19;;;16.95;66.56
42887;BME280;29032;56.028;92.904;2023-08-17T15:06:49;98844.59;;;16.99;66.57
42887;BME280;29032;56.028;92.904;2023-08-17T15:11:51;98839.97;;;16.94;66.62
42887;BME280;29032;56.028;92.904;2023-08-17T15:16:54;98837.41;;;16.88;66.47
42887;BME280;29032;56.028;92.904;2023-08-17T15:21:57;98851.63;;;16.90;66.52
42887;BME280;29032;56.028;92.904;2023-08-17T15:26:59;98850.53;;;16.86;66.39
42887;BME280;29032;56.028;92.904;2023-08-17T15:32:01;98843.13;;;16.80;66.85
42887;BME280;29032;56.028;92.904;2023-08-17T15:37:05;98843.75;;;16.89;66.22
42887;BME280;29032;56.028;92.904;2023-08-17T15:42:07;98846.25;;;16.84;66.44
42887;BME280;29032;56.028;92.904;2023-08-17T15:47:09;98847.16;;;16.87;65.55
42887;BME280;29032;56.028;92.904;2023-08-17T15:52:14;98843.19;;;16.90;66.13
42887;BME280;29032;56.028;92.904;2023-08-17T15:57:16;98849.22;;;16.87;66.01
42887;BME280;29032;56.028;92.904;2023-08-17T16:02:18;98847.88;;;16.88;66.08
42887;BME280;29032;56.028;92.904;2023-08-17T16:07:22;98848.22;;;16.92;65.58
42887;BME280;29032;56.028;92.904;2023-08-17T16:12:24;98844.94;;;16.86;65.89
42887;BME280;29032;56.028;92.904;2023-08-17T16:17:26;98851.63;;;16.90;65.56
42887;BME280;29032;56.028;92.904;2023-08-17T16:22:29;98848.53;;;16.96;65.49
42887;BME280;29032;56.028;92.904;2023-08-17T16:27:31;98843.94;;;16.91;65.85
42887;BME280;29032;56.028;92.904;2023-08-17T16:32:33;98836.84;;;16.90;65.60
42887;BME280;29032;56.028;92.904;2023-08-17T16:37:37;98845.56;;;16.94;65.65
42887;BME280;29032;56.028;92.904;2023-08-17T16:42:39;98842.13;;;16.86;65.82
42887;BME280;29032;56.028;92.904;2023-08-17T16:47:41;98838.69;;;16.77;65.68
42887;BME280;29032;56.028;92.904;2023-08-17T16:52:44;98842.47;;;16.72;66.19
42887;BME280;29032;56.028;92.904;2023-08-17T16:57:47;98841.78;;;16.64;66.69
42887;BME280;29032;56.028;92.904;2023-08-17T17:02:49;98844.59;;;16.64;66.17
42887;BME280;29032;56.028;92.904;2023-08-17T17:07:52;98841.94;;;16.66;66.06
42887;BME280;29032;56.028;92.904;2023-08-17T17:12:54;98848.72;;;16.63;66.73
42887;BME280;29032;56.028;92.904;2023-08-17T17:17:56;98845.19;;;16.63;66.51
42887;BME280;29032;56.028;92.904;2023-08-17T17:23:00;98843.66;;;16.62;66.72
42887;BME280;29032;56.028;92.904;2023-08-17T17:28:02;98846.41;;;16.52;66.75
42887;BME280;29032;56.028;92.904;2023-08-17T17:33:04;98850.38;;;16.49;66.88
42887;BME280;29032;56.028;92.904;2023-08-17T17:38:08;98845.31;;;16.47;67.86
42887;BME280;29032;56.028;92.904;2023-08-17T17:43:10;98854.00;;;16.42;67.62
42887;BME280;29032;56.028;92.904;2023-08-17T17:48:12;98858.13;;;16.41;67.90
42887;BME280;29032;56.028;92.904;2023-08-17T17:53:15;98851.34;;;16.44;68.13
42887;BME280;29032;56.028;92.904;2023-08-17T17:58:17;98853.66;;;16.38;67.88
42887;BME280;29032;56.028;92.904;2023-08-17T18:03:19;98853.06;;;16.39;68.04
42887;BME280;29032;56.028;92.904;2023-08-17T18:08:23;98852.81;;;16.45;68.30
42887;BME280;29032;56.028;92.904;2023-08-17T18:13:25;98851.34;;;16.44;67.91
42887;BME280;29032;56.028;92.904;2023-08-17T18:18:27;98845.75;;;16.44;67.72
42887;BME280;29032;56.028;92.904;2023-08-17T18:23:31;98852.09;;;16.44;67.70
42887;BME280;29032;56.028;92.904;2023-08-17T18:28:33;98848.22;;;16.40;68.17
42887;BME280;29032;56.028;92.904;2023-08-17T18:33:35;98846.91;;;16.41;68.17
42887;BME280;29032;56.028;92.904;2023-08-17T18:38:39;98852.97;;;16.47;68.29
42887;BME280;29032;56.028;92.904;2023-08-17T18:43:41;98848.41;;;16.42;68.05
42887;BME280;29032;56.028;92.904;2023-08-17T18:48:43;98851.50;;;16.46;67.75
42887;BME280;29032;56.028;92.904;2023-08-17T18:53:46;98855.78;;;16.47;68.64
42887;BME280;29032;56.028;92.904;2023-08-17T18:58:48;98849.13;;;16.42;67.80
42887;BME280;29032;56.028;92.904;2023-08-17T19:03:50;98846.91;;;16.41;67.84
42887;BME280;29032;56.028;92.904;2023-08-17T19:08:54;98848.72;;;16.46;68.01
42887;BME280;29032;56.028;92.904;2023-08-17T19:13:56;98854.16;;;16.44;67.85
42887;BME280;29032;56.028;92.904;2023-08-17T19:18:58;98852.09;;;16.44;67.99
42887;BME280;29032;56.028;92.904;2023-08-17T19:24:01;98855.78;;;16.47;68.46
42887;BME280;29032;56.028;92.904;2023-08-17T19:29:03;98855.31;;;16.41;68.51
42887;BME280;29032;56.028;92.904;2023-08-17T19:34:05;98858.91;;;16.34;68.52
42887;BME280;29032;56.028;92.904;2023-08-17T19:39:09;98850.34;;;16.32;68.79
42887;BME280;29032;56.028;92.904;2023-08-17T19:44:11;98854.13;;;16.26;69.17
42887;BME280;29032;56.028;92.904;2023-08-17T19:49:13;98846.66;;;16.29;69.12
42887;BME280;29032;56.028;92.904;2023-08-17T19:54:16;98854.63;;;16.33;69.25
42887;BME280;29032;56.028;92.904;2023-08-17T19:59:18;98847.97;;;16.28;68.81
42887;BME280;29032;56.028;92.904;2023-08-17T20:04:20;98853.56;;;16.28;68.84
42887;BME280;29032;56.028;92.904;2023-08-17T20:09:24;98849.94;;;16.35;68.88
42887;BME280;29032;56.028;92.904;2023-08-17T20:14:26;98861.16;;;16.35;68.77
42887;BME280;29032;56.028;92.904;2023-08-17T20:19:28;98860.72;;;16.39;68.38
42887;BME280;29032;56.028;92.904;2023-08-17T20:24:31;98855.47;;;16.43;68.81
42887;BME280;29032;56.028;92.904;2023-08-17T20:29:33;98861.06;;;16.43;68.50
42887;BME280;29032;56.028;92.904;2023-08-17T20:34:36;98857.09;;;16.46;68.28
42887;BME280;29032;56.028;92.904;2023-08-17T20:39:40;98864.38;;;16.49;68.26
42887;BME280;29032;56.028;92.904;2023-08-17T20:44:42;98863.88;;;16.43;68.32
42887;BME280;29032;56.028;92.904;2023-08-17T20:49:43;98864.84;;;16.38;68.43
42887;BME280;29032;56.028;92.904;2023-08-17T20:54:47;98861.88;;;16.36;68.26
42887;BME280;29032;56.028;92.904;2023-08-17T20:59:49;98865.66;;;16.30;68.13
42887;BME280;29032;56.028;92.904;2023-08-17T21:04:51;98876.53;;;16.26;68.26
42887;BME280;29032;56.028;92.904;2023-08-17T21:09:54;98882.13;;;16.26;68.54
42887;BME280;29032;56.028;92.904;2023-08-17T21:14:56;98877.00;;;16.15;68.90
42887;BME280;29032;56.028;92.904;2023-08-17T21:19:59;98877.00;;;16.15;68.73
42887;BME280;29032;56.028;92.904;2023-08-17T21:25:02;98874.38;;;16.17;68.84
42887;BME280;29032;56.028;92.904;2023-08-17T21:30:06;98874.78;;;16.14;69.11
42887;BME280;29032;56.028;92.904;2023-08-17T21:35:08;98876.09;;;16.13;68.80
42887;BME280;29032;56.028;92.904;2023-08-17T21:40:12;98877.34;;;16.19;68.70
42887;BME280;29032;56.028;92.904;2023-08-17T21:45:14;98879.97;;;16.17;68.76
42887;BME280;29032;56.028;92.904;2023-08-17T21:50:16;98878.84;;;16.20;68.21
42887;BME280;29032;56.028;92.904;2023-08-17T21:55:20;98880.47;;;16.23;68.30
42887;BME280;29032;56.028;92.904;2023-08-17T22:00:22;98893.00;;;16.22;68.94
42887;BME280;29032;56.028;92.904;2023-08-17T22:05:24;98877.84;;;16.25;68.59
42887;BME280;29032;56.028;92.904;2023-08-17T22:10:27;98883.22;;;16.31;68.99
42887;BME280;29032;56.028;92.904;2023-08-17T22:15:29;98881.00;;;16.29;68.80
42887;BME280;29032;56.028;92.904;2023-08-17T22:20:31;98886.00;;;16.31;68.20
42887;BME280;29032;56.028;92.904;2023-08-17T22:25:35;98880.16;;;16.37;68.29
42887;BME280;29032;56.028;92.904;2023-08-17T22:30:37;98875.72;;;16.34;67.90
42887;BME280;29032;56.028;92.904;2023-08-17T22:35:39;98880.25;;;16.29;68.25
42887;BME280;29032;56.028;92.904;2023-08-17T22:40:42;98885.44;;;16.33;68.15
42887;BME280;29032;56.028;92.904;2023-08-17T22:45:44;98885.09;;;16.28;67.58
42887;BME280;29032;56.028;92.904;2023-08-17T22:50:46;98892.75;;;16.28;68.56
42887;BME280;29032;56.028;92.904;2023-08-17T22:55:50;98899.63;;;16.35;68.11
42887;BME280;29032;56.028;92.904;2023-08-17T23:00:52;98889.97;;;16.28;67.84
42887;BME280;29032;56.028;92.904;2023-08-17T23:05:54;98894.47;;;16.23;67.90
42887;BME280;29032;56.028;92.904;2023-08-17T23:11:01;98899.09;;;16.28;68.52
42887;BME280;29032;56.028;92.904;2023-08-17T23:16:03;98887.41;;;16.22;67.80
42887;BME280;29032;56.028;92.904;2023-08-17T23:21:05;98894.53;;;16.16;67.77
42887;BME280;29032;56.028;92.904;2023-08-17T23:26:09;98892.66;;;16.18;67.86
42887;BME280;29032;56.028;92.904;2023-08-17T23:31:11;98896.59;;;16.15;67.62
42887;BME280;29032;56.028;92.904;2023-08-17T23:36:13;98890.25;;;16.15;67.81
42887;BME280;29032;56.028;92.904;2023-08-17T23:41:16;98901.03;;;16.18;67.67
42887;BME280;29032;56.028;92.904;2023-08-17T23:46:18;98902.19;;;16.15;67.73
42887;BME280;29032;56.028;92.904;2023-08-17T23:51:20;98900.31;;;16.18;67.38
42887;BME280;29032;56.028;92.904;2023-08-17T23:56:24;98911.28;;;16.23;67.35
